Time;durP1;ratioP1;P1;durP2;ratioP2;P2;SDS_P1;SDS_P2;PMS_P1;PMS_P2;Temp;Humidity;BMP_temperature;BMP_pressure;BME280_temperature;BME280_humidity;BME280_pressure;Samples;Min_cycle;Max_cycle;Signal;HPM_P1;HPM_P2
2023/09/18 00:00:35;;;;;;;8.50;7.63;;;20.80;99.90;;;;;;5036296;28;20225;-63
2023/09/18 00:03:02;;;;;;;7.83;7.20;;;20.80;99.90;;;;;;5037713;28;20280;-63
2023/09/18 00:05:28;;;;;;;10.00;9.10;;;20.90;99.90;;;;;;5031442;28;20723;-63
2023/09/18 00:07:53;;;;;;;7.83;7.13;;;20.90;99.90;;;;;;5035603;28;20190;-58
2023/09/18 00:10:19;;;;;;;8.13;7.37;;;20.90;99.90;;;;;;5040298;28;20202;-58
2023/09/18 00:12:44;;;;;;;8.23;7.53;;;20.90;99.90;;;;;;5035589;28;20596;-58
2023/09/18 00:15:10;;;;;;;8.57;7.87;;;20.90;99.90;;;;;;5029717;28;20289;-58
2023/09/18 00:17:36;;;;;;;8.50;7.70;;;20.80;99.90;;;;;;5015463;28;20199;-60
2023/09/18 00:20:09;;;;;;;8.30;7.33;;;20.80;99.90;;;;;;5032926;28;20219;-61
2023/09/18 00:22:34;;;;;;;7.00;6.50;;;20.70;99.90;;;;;;5029531;28;20637;-64
2023/09/18 00:25:01;;;;;;;8.40;7.70;;;20.70;99.90;;;;;;5035574;28;20206;-63
2023/09/18 00:27:26;;;;;;;8.93;8.03;;;20.80;99.90;;;;;;5038418;28;20205;-63
2023/09/18 00:29:52;;;;;;;7.30;6.80;;;20.80;99.90;;;;;;5037549;28;20198;-63
2023/09/18 00:32:17;;;;;;;10.37;8.03;;;20.80;99.90;;;;;;5036084;28;20219;-59
2023/09/18 00:34:43;;;;;;;7.90;7.20;;;20.70;99.90;;;;;;5037892;28;20241;-60
2023/09/18 00:37:11;;;;;;;8.13;7.40;;;20.60;99.90;;;;;;5041599;28;20262;-63
2023/09/18 00:39:37;;;;;;;9.20;7.67;;;20.50;99.90;;;;;;5041364;28;20613;-59
2023/09/18 00:42:03;;;;;;;7.67;7.00;;;20.60;99.90;;;;;;5035166;28;20743;-65
2023/09/18 00:44:28;;;;;;;6.97;6.47;;;20.60;99.90;;;;;;5036227;28;20769;-59
2023/09/18 00:46:57;;;;;;;7.83;7.13;;;20.60;99.90;;;;;;5041969;28;20262;-64
2023/09/18 00:49:23;;;;;;;7.00;6.30;;;20.40;99.90;;;;;;5035648;28;20199;-63
2023/09/18 00:51:50;;;;;;;7.70;7.00;;;20.40;99.90;;;;;;5039537;28;20218;-62
2023/09/18 00:54:18;;;;;;;7.87;7.17;;;20.50;99.90;;;;;;5039885;28;20755;-63
2023/09/18 00:56:48;;;;;;;8.07;7.37;;;20.40;99.90;;;;;;5041437;28;20237;-61
2023/09/18 00:59:14;;;;;;;7.60;6.80;;;20.40;99.90;;;;;;5040897;28;20202;-60
2023/09/18 01:01:41;;;;;;;8.03;7.23;;;20.50;99.90;;;;;;5039191;28;20206;-63
2023/09/18 01:04:07;;;;;;;7.60;6.97;;;20.40;99.90;;;;;;5038627;28;20210;-63
2023/09/18 01:06:33;;;;;;;7.20;6.60;;;20.40;99.90;;;;;;5046471;28;20210;-62
2023/09/18 01:08:59;;;;;;;7.70;6.93;;;20.30;99.90;;;;;;5021577;28;20933;-60
2023/09/18 01:11:42;;;;;;;7.23;6.60;;;20.40;99.90;;;;;;5036792;28;20205;-64
2023/09/18 01:14:31;;;;;;;8.67;7.00;;;20.40;99.90;;;;;;5039125;28;20862;-61
2023/09/18 01:17:01;;;;;;;7.47;6.90;;;20.40;99.90;;;;;;5041790;28;20253;-61
2023/09/18 01:19:48;;;;;;;7.83;7.00;;;20.50;99.90;;;;;;5036851;28;20793;-59
2023/09/18 01:22:19;;;;;;;12.83;7.30;;;20.30;99.90;;;;;;5018610;28;20202;-57
2023/09/18 01:24:47;;;;;;;7.47;6.87;;;20.40;99.90;;;;;;5041040;28;20373;-58
2023/09/18 01:27:14;;;;;;;8.27;7.47;;;20.30;99.90;;;;;;5036312;28;20225;-59
2023/09/18 01:29:40;;;;;;;7.60;6.90;;;20.30;99.90;;;;;;5044907;28;20276;-58
2023/09/18 01:32:06;;;;;;;7.10;6.40;;;20.30;99.90;;;;;;5021064;28;20819;-58
2023/09/18 01:34:36;;;;;;;7.53;6.83;;;20.30;99.90;;;;;;5042164;28;20213;-59
2023/09/18 01:37:04;;;;;;;8.20;7.20;;;20.10;99.90;;;;;;5035277;28;20210;-58
2023/09/18 01:39:31;;;;;;;8.57;6.43;;;20.10;99.90;;;;;;5036332;28;20225;-58
2023/09/18 01:42:01;;;;;;;7.93;7.27;;;20.10;99.90;;;;;;5038188;28;20214;-59
2023/09/18 01:44:27;;;;;;;7.30;6.60;;;20.20;99.90;;;;;;5033777;28;20201;-58
2023/09/18 01:46:55;;;;;;;8.00;7.23;;;20.20;99.90;;;;;;5033535;28;20203;-59
2023/09/18 01:49:33;;;;;;;7.40;6.80;;;20.20;99.90;;;;;;5040226;28;20206;-58
2023/09/18 01:51:59;;;;;;;6.93;6.27;;;20.10;99.90;;;;;;5018641;28;20218;-59
2023/09/18 01:54:25;;;;;;;8.23;7.50;;;20.00;99.90;;;;;;5018599;28;20705;-59
2023/09/18 01:56:51;;;;;;;7.63;6.93;;;20.10;99.90;;;;;;5040128;28;20280;-58
2023/09/18 01:59:18;;;;;;;7.80;7.10;;;20.10;99.90;;;;;;5034101;28;20195;-59
2023/09/18 02:01:44;;;;;;;7.87;7.20;;;20.10;99.90;;;;;;5036113;28;20194;-58
2023/09/18 02:04:09;;;;;;;7.03;6.33;;;19.90;99.90;;;;;;5020459;28;20205;-58
2023/09/18 02:06:35;;;;;;;7.70;7.10;;;19.90;99.90;;;;;;5037640;28;20209;-61
2023/09/18 02:09:02;;;;;;;7.33;6.60;;;19.80;99.90;;;;;;5041650;28;20205;-61
2023/09/18 02:11:28;;;;;;;7.40;6.80;;;19.90;99.90;;;;;;5019741;28;20194;-61
2023/09/18 02:13:53;;;;;;;7.77;7.07;;;19.80;99.90;;;;;;5019930;28;20221;-61
2023/09/18 02:16:23;;;;;;;6.93;6.37;;;19.90;99.90;;;;;;5036757;28;20215;-61
2023/09/18 02:18:49;;;;;;;7.20;6.50;;;19.90;99.90;;;;;;5037672;28;20275;-61
2023/09/18 02:21:21;;;;;;;6.90;6.40;;;19.80;99.90;;;;;;5037405;28;20585;-61
2023/09/18 02:23:51;;;;;;;7.73;7.03;;;19.80;99.90;;;;;;5039805;28;20203;-61
2023/09/18 02:26:17;;;;;;;7.07;6.47;;;19.90;99.90;;;;;;5019559;28;20313;-61
2023/09/18 02:28:43;;;;;;;7.13;6.47;;;19.70;99.90;;;;;;5023574;28;20198;-61
2023/09/18 02:31:08;;;;;;;7.93;7.13;;;19.80;99.90;;;;;;5039168;28;20210;-61
2023/09/18 02:33:34;;;;;;;7.43;6.80;;;19.80;99.90;;;;;;5030841;28;20224;-61
2023/09/18 02:36:00;;;;;;;7.30;6.70;;;19.90;99.90;;;;;;5024735;28;20211;-61
2023/09/18 02:38:26;;;;;;;7.90;7.10;;;19.80;99.90;;;;;;5037066;28;20201;-60
2023/09/18 02:40:53;;;;;;;7.40;6.80;;;19.70;99.90;;;;;;5037358;28;20204;-60
2023/09/18 02:43:18;;;;;;;7.03;6.47;;;19.70;99.90;;;;;;5039064;28;20260;-60
2023/09/18 02:45:45;;;;;;;6.87;6.37;;;19.70;99.90;;;;;;5017076;28;20327;-61
2023/09/18 02:48:11;;;;;;;7.77;7.07;;;19.50;99.90;;;;;;5036722;28;20420;-61
2023/09/18 02:50:36;;;;;;;9.20;7.07;;;19.60;99.90;;;;;;5033095;28;20193;-61
2023/09/18 02:53:03;;;;;;;6.93;6.33;;;19.60;99.90;;;;;;5022970;28;20240;-63
2023/09/18 02:55:28;;;;;;;7.07;6.47;;;19.60;99.90;;;;;;5032227;28;20199;-61
2023/09/18 02:57:54;;;;;;;7.60;6.93;;;19.60;99.90;;;;;;5015912;28;20267;-63
2023/09/18 03:00:21;;;;;;;7.23;6.53;;;19.50;99.90;;;;;;5034385;28;20209;-61
2023/09/18 03:02:46;;;;;;;7.63;6.97;;;19.50;99.90;;;;;;5034085;28;20193;-65
2023/09/18 03:05:11;;;;;;;7.90;7.10;;;19.50;99.90;;;;;;5036648;28;20724;-58
2023/09/18 03:07:37;;;;;;;7.20;6.60;;;19.50;99.90;;;;;;5033928;28;20285;-60
2023/09/18 03:10:04;;;;;;;7.77;6.87;;;19.50;99.90;;;;;;5035487;28;20196;-60
2023/09/18 03:12:30;;;;;;;7.80;6.53;;;19.50;99.90;;;;;;5038033;28;20617;-64
2023/09/18 03:14:55;;;;;;;8.63;6.77;;;19.50;99.90;;;;;;5036988;28;20227;-63
2023/09/18 03:17:21;;;;;;;7.53;6.30;;;19.40;99.90;;;;;;5033023;28;20233;-63
2023/09/18 03:19:49;;;;;;;8.63;7.73;;;19.40;99.90;;;;;;5040745;28;20614;-62
2023/09/18 03:22:16;;;;;;;7.77;6.97;;;19.40;99.90;;;;;;5040178;28;20208;-62
2023/09/18 03:24:41;;;;;;;7.57;6.97;;;19.40;99.90;;;;;;5036159;28;20207;-62
2023/09/18 03:27:07;;;;;;;6.37;5.87;;;19.30;99.90;;;;;;5036433;28;20203;-62
2023/09/18 03:29:32;;;;;;;7.90;7.20;;;19.30;99.90;;;;;;5029358;28;20204;-62
2023/09/18 03:31:59;;;;;;;7.00;6.50;;;19.30;99.90;;;;;;5033674;28;20578;-62
2023/09/18 03:34:27;;;;;;;7.50;6.80;;;19.20;99.90;;;;;;5022561;28;20666;-62
2023/09/18 03:36:53;;;;;;;7.73;7.00;;;19.20;99.90;;;;;;5038915;28;20183;-61
2023/09/18 03:39:19;;;;;;;6.90;6.40;;;19.20;99.90;;;;;;5033007;28;20748;-61
2023/09/18 03:41:45;;;;;;;8.37;7.13;;;19.30;99.90;;;;;;5033395;28;20212;-62
2023/09/18 03:44:11;;;;;;;7.30;6.70;;;19.30;99.90;;;;;;5030104;28;20210;-62
2023/09/18 03:46:37;;;;;;;8.43;7.70;;;19.30;99.90;;;;;;5035885;28;20287;-63
2023/09/18 03:49:02;;;;;;;9.03;7.50;;;19.30;99.90;;;;;;5014584;28;20277;-63
2023/09/18 03:51:29;;;;;;;8.33;7.10;;;19.30;99.90;;;;;;5037654;28;20255;-64
2023/09/18 03:53:57;;;;;;;7.60;6.80;;;19.30;99.90;;;;;;5035616;28;20300;-63
2023/09/18 03:56:23;;;;;;;7.57;6.97;;;19.10;99.90;;;;;;5029583;28;20301;-63
2023/09/18 03:58:49;;;;;;;9.67;7.57;;;19.10;99.90;;;;;;5038730;28;20295;-63
2023/09/18 04:01:15;;;;;;;7.80;7.20;;;19.00;99.90;;;;;;5017432;28;20310;-63
2023/09/18 04:03:41;;;;;;;8.27;6.93;;;19.00;99.90;;;;;;5036992;28;20198;-63
2023/09/18 04:06:07;;;;;;;7.67;7.07;;;19.00;99.90;;;;;;5034784;28;20377;-63
2023/09/18 04:08:33;;;;;;;8.27;6.27;;;19.00;99.90;;;;;;5033127;28;20196;-63
2023/09/18 04:10:58;;;;;;;8.07;7.37;;;19.10;99.90;;;;;;5040263;28;20205;-64
2023/09/18 04:13:24;;;;;;;7.87;7.17;;;18.90;99.90;;;;;;5043628;28;20231;-63
2023/09/18 04:15:50;;;;;;;7.53;6.83;;;18.70;99.90;;;;;;5037716;28;21021;-62
2023/09/18 04:18:15;;;;;;;7.77;7.10;;;18.70;99.90;;;;;;5041997;28;20210;-64
2023/09/18 04:20:41;;;;;;;7.67;6.93;;;18.70;99.90;;;;;;5039129;28;20208;-64
2023/09/18 04:23:21;;;;;;;7.40;6.70;;;18.60;99.90;;;;;;5034022;28;20215;-64
2023/09/18 04:25:47;;;;;;;9.77;7.00;;;18.50;99.90;;;;;;5041239;28;20185;-64
2023/09/18 04:28:17;;;;;;;8.00;7.20;;;18.60;99.90;;;;;;5039948;28;20271;-62
2023/09/18 04:30:43;;;;;;;8.17;7.47;;;18.60;99.90;;;;;;5031416;28;20678;-62
2023/09/18 04:33:08;;;;;;;8.83;8.03;;;18.50;99.90;;;;;;5041359;28;20215;-61
2023/09/18 04:35:34;;;;;;;8.50;7.57;;;18.70;99.90;;;;;;5031784;28;20204;-62
2023/09/18 04:37:59;;;;;;;7.97;7.27;;;18.50;99.90;;;;;;5037064;28;20211;-62
2023/09/18 04:40:26;;;;;;;7.47;6.83;;;18.50;99.90;;;;;;5036886;28;20216;-61
2023/09/18 04:42:52;;;;;;;7.90;7.10;;;18.50;99.90;;;;;;5032056;28;20224;-61
2023/09/18 04:45:20;;;;;;;8.57;7.83;;;18.50;99.90;;;;;;5029269;28;20226;-63
2023/09/18 04:47:46;;;;;;;8.70;7.90;;;18.50;99.90;;;;;;5044405;28;20228;-63
2023/09/18 04:50:11;;;;;;;7.70;7.00;;;18.60;99.90;;;;;;5036236;28;20201;-59
2023/09/18 04:52:37;;;;;;;8.03;7.33;;;18.40;99.90;;;;;;5028120;28;20217;-59
2023/09/18 04:55:05;;;;;;;8.87;8.07;;;18.50;99.90;;;;;;5039513;28;20212;-59
2023/09/18 04:57:31;;;;;;;9.43;8.60;;;18.60;99.90;;;;;;5016833;28;20575;-60
2023/09/18 04:59:56;;;;;;;7.67;6.97;;;18.50;99.90;;;;;;5038859;28;20206;-60
2023/09/18 05:02:22;;;;;;;8.73;7.83;;;18.50;99.90;;;;;;5038563;28;20229;-59
2023/09/18 05:04:47;;;;;;;7.57;6.67;;;18.50;99.90;;;;;;5034285;28;20584;-59
2023/09/18 05:07:13;;;;;;;8.80;8.00;;;18.40;99.90;;;;;;5036434;28;20215;-62
2023/09/18 05:09:40;;;;;;;8.30;7.50;;;18.50;99.90;;;;;;5042488;28;20210;-63
2023/09/18 05:12:08;;;;;;;8.67;6.97;;;18.60;99.90;;;;;;5039626;28;20621;-62
2023/09/18 05:14:34;;;;;;;8.57;7.40;;;18.70;99.90;;;;;;5041494;28;20289;-62
2023/09/18 05:16:59;;;;;;;7.87;7.10;;;18.70;99.90;;;;;;5037217;28;20201;-62
2023/09/18 05:19:25;;;;;;;8.03;7.03;;;18.70;99.90;;;;;;5042472;28;20197;-63
2023/09/18 05:21:51;;;;;;;8.33;7.63;;;18.70;99.90;;;;;;5040562;28;20275;-62
2023/09/18 05:24:16;;;;;;;12.00;7.83;;;18.50;99.90;;;;;;5034017;28;20205;-63
2023/09/18 05:26:41;;;;;;;8.33;7.63;;;18.40;99.90;;;;;;5043077;28;20604;-62
2023/09/18 05:29:07;;;;;;;8.53;7.73;;;18.50;99.90;;;;;;5042621;28;20210;-63
2023/09/18 05:31:32;;;;;;;7.53;6.83;;;18.60;99.90;;;;;;5042352;28;20255;-62
2023/09/18 05:33:58;;;;;;;8.23;7.43;;;18.70;99.90;;;;;;5036714;28;20238;-62
2023/09/18 05:36:24;;;;;;;7.13;6.53;;;18.70;99.90;;;;;;5016878;28;20206;-62
2023/09/18 05:38:49;;;;;;;12.20;7.60;;;18.70;99.90;;;;;;5039461;28;20719;-60
2023/09/18 05:41:15;;;;;;;8.17;7.37;;;18.70;99.90;;;;;;5042373;28;20206;-63
2023/09/18 05:43:40;;;;;;;8.27;7.47;;;18.70;99.90;;;;;;5031983;28;20740;-60
2023/09/18 05:46:06;;;;;;;8.57;6.97;;;18.80;99.90;;;;;;5040913;28;20217;-65
2023/09/18 05:48:32;;;;;;;7.33;6.63;;;18.80;99.90;;;;;;5034667;28;20232;-59
2023/09/18 05:50:58;;;;;;;8.13;7.27;;;18.90;99.90;;;;;;5036822;28;20216;-66
2023/09/18 05:53:23;;;;;;;7.43;6.77;;;18.90;99.90;;;;;;5042167;28;20213;-61
2023/09/18 05:55:49;;;;;;;8.07;7.37;;;19.00;99.90;;;;;;5039743;28;20197;-61
2023/09/18 05:58:14;;;;;;;7.60;6.90;;;19.00;99.90;;;;;;5039356;28;20655;-59
2023/09/18 06:00:40;;;;;;;7.70;7.00;;;19.00;99.90;;;;;;5021529;28;20217;-62
2023/09/18 06:03:12;;;;;;;7.40;6.57;;;19.00;99.90;;;;;;5032618;28;20752;-64
2023/09/18 06:05:37;;;;;;;7.40;6.70;;;19.20;99.90;;;;;;5037769;28;20200;-65
2023/09/18 06:08:03;;;;;;;8.37;7.57;;;19.20;99.90;;;;;;5039282;28;20200;-63
2023/09/18 06:10:28;;;;;;;10.33;7.70;;;19.10;99.90;;;;;;5037210;28;20214;-64
2023/09/18 06:12:54;;;;;;;9.50;6.93;;;19.10;99.90;;;;;;5033551;28;20492;-63
2023/09/18 06:15:19;;;;;;;7.57;6.90;;;19.20;99.90;;;;;;5035015;28;20963;-65
2023/09/18 06:17:45;;;;;;;7.10;6.50;;;19.30;99.90;;;;;;5035514;28;20791;-66
2023/09/18 06:20:15;;;;;;;7.70;7.00;;;19.30;99.90;;;;;;5032005;28;20202;-62
2023/09/18 06:22:41;;;;;;;8.57;7.23;;;19.40;99.90;;;;;;5019070;28;20723;-61
2023/09/18 06:25:09;;;;;;;6.77;6.17;;;19.50;99.90;;;;;;5017253;28;20209;-61
2023/09/18 06:27:36;;;;;;;8.93;7.00;;;19.40;99.90;;;;;;5035181;28;20245;-61
2023/09/18 06:30:02;;;;;;;9.93;7.57;;;19.50;99.90;;;;;;5037394;28;20201;-68
2023/09/18 06:32:27;;;;;;;10.47;7.73;;;19.50;99.90;;;;;;5037157;28;20218;-66
2023/09/18 06:34:53;;;;;;;9.83;7.23;;;19.60;99.90;;;;;;5035732;28;20993;-66
2023/09/18 06:37:20;;;;;;;7.50;6.60;;;19.50;99.90;;;;;;5018355;28;20207;-65
2023/09/18 06:39:45;;;;;;;7.07;6.40;;;19.50;99.90;;;;;;5034030;28;20200;-65
2023/09/18 06:42:11;;;;;;;7.40;6.73;;;19.60;99.90;;;;;;5039193;28;20696;-61
2023/09/18 06:44:37;;;;;;;7.83;6.97;;;19.60;99.90;;;;;;5028060;28;20272;-62
2023/09/18 06:47:03;;;;;;;7.30;6.63;;;19.60;99.90;;;;;;5035787;28;20209;-65
2023/09/18 06:49:28;;;;;;;8.60;7.57;;;19.70;99.90;;;;;;5013624;28;20222;-65
2023/09/18 06:51:53;;;;;;;8.23;6.43;;;19.80;99.90;;;;;;5022935;28;20210;-61
2023/09/18 06:54:19;;;;;;;8.70;6.87;;;19.90;99.90;;;;;;5037206;28;20762;-59
2023/09/18 06:56:45;;;;;;;8.77;6.43;;;20.00;99.90;;;;;;5033193;28;20211;-60
2023/09/18 06:59:11;;;;;;;10.30;6.17;;;19.90;99.90;;;;;;5037383;28;20225;-65
2023/09/18 07:01:37;;;;;;;7.37;6.67;;;20.10;99.90;;;;;;5036773;28;20269;-64
2023/09/18 07:04:04;;;;;;;13.30;6.60;;;20.10;99.90;;;;;;5037480;28;20233;-61
2023/09/18 07:06:30;;;;;;;7.73;6.13;;;20.20;99.90;;;;;;5034830;28;20213;-62
2023/09/18 07:08:56;;;;;;;7.43;6.70;;;20.30;99.90;;;;;;5038052;28;20217;-62
2023/09/18 07:11:22;;;;;;;7.23;6.60;;;20.40;99.90;;;;;;5030309;28;20238;-64
2023/09/18 07:13:50;;;;;;;7.80;6.30;;;20.40;99.90;;;;;;5013210;28;20242;-72
2023/09/18 07:16:16;;;;;;;8.27;6.77;;;20.50;99.90;;;;;;5017320;28;20194;-62
2023/09/18 07:18:41;;;;;;;6.40;5.90;;;20.50;99.90;;;;;;5030667;28;20553;-62
2023/09/18 07:21:07;;;;;;;7.80;7.10;;;20.70;99.90;;;;;;5032116;28;20612;-63
2023/09/18 07:23:36;;;;;;;6.73;6.13;;;20.80;99.90;;;;;;5042597;28;20198;-63
2023/09/18 07:26:02;;;;;;;7.10;6.37;;;20.80;99.90;;;;;;5038316;28;20236;-62
2023/09/18 07:28:28;;;;;;;14.00;6.53;;;20.90;99.90;;;;;;5033061;28;20702;-66
2023/09/18 07:30:53;;;;;;;7.00;5.97;;;21.00;99.90;;;;;;5032325;28;20195;-64
2023/09/18 07:33:20;;;;;;;5.77;5.27;;;21.20;99.90;;;;;;5036363;28;20733;-64
2023/09/18 07:35:51;;;;;;;6.93;6.17;;;21.20;99.90;;;;;;5036008;28;20214;-64
2023/09/18 07:38:18;;;;;;;6.23;5.63;;;21.40;99.90;;;;;;5019019;28;20197;-60
2023/09/18 07:40:45;;;;;;;6.43;5.83;;;21.40;99.90;;;;;;5035603;28;20206;-60
2023/09/18 07:43:13;;;;;;;7.07;6.03;;;21.50;99.90;;;;;;5037100;28;20191;-60
2023/09/18 07:45:39;;;;;;;7.70;5.73;;;21.60;99.90;;;;;;5036348;28;20278;-61
2023/09/18 07:48:06;;;;;;;6.73;6.00;;;21.60;99.90;;;;;;5036568;28;20325;-63
2023/09/18 07:50:33;;;;;;;5.70;5.20;;;21.70;99.90;;;;;;5018116;28;20658;-64
2023/09/18 07:52:58;;;;;;;6.37;5.77;;;21.70;99.90;;;;;;5035818;28;20245;-63
2023/09/18 07:55:24;;;;;;;7.17;6.47;;;21.80;99.90;;;;;;5036281;28;20200;-63
2023/09/18 07:57:51;;;;;;;6.77;5.47;;;21.90;99.90;;;;;;5037799;28;20273;-62
2023/09/18 08:00:18;;;;;;;6.27;5.70;;;22.00;99.90;;;;;;5035599;28;20194;-64
2023/09/18 08:02:44;;;;;;;6.33;5.83;;;22.10;99.90;;;;;;5035920;28;20205;-62
2023/09/18 08:05:09;;;;;;;6.27;5.63;;;22.10;99.90;;;;;;5038718;28;20187;-61
2023/09/18 08:07:38;;;;;;;5.70;5.20;;;22.20;99.90;;;;;;5031728;28;20252;-60
2023/09/18 08:10:08;;;;;;;5.10;4.70;;;22.20;99.90;;;;;;5035810;28;20514;-59
2023/09/18 08:12:36;;;;;;;4.70;4.30;;;22.30;99.90;;;;;;5035602;28;20847;-61
2023/09/18 08:15:02;;;;;;;6.90;5.10;;;22.30;99.90;;;;;;5035659;28;20206;-63
2023/09/18 08:17:28;;;;;;;6.40;4.83;;;22.40;99.90;;;;;;5035968;28;20390;-63
2023/09/18 08:19:54;;;;;;;4.67;4.33;;;22.50;99.90;;;;;;5037562;28;20650;-62
2023/09/18 08:22:20;;;;;;;5.47;5.07;;;22.50;99.90;;;;;;5036120;28;20195;-61
2023/09/18 08:24:52;;;;;;;5.78;5.07;;;22.50;99.90;;;;;;5033203;28;20436;-63
2023/09/18 08:27:18;;;;;;;5.87;5.37;;;22.70;99.90;;;;;;5013764;28;20211;-62
2023/09/18 08:29:45;;;;;;;6.32;5.50;;;22.80;99.90;;;;;;5035667;28;20289;-62
2023/09/18 08:32:10;;;;;;;6.03;5.33;;;22.90;99.90;;;;;;5037240;28;20222;-63
2023/09/18 08:34:36;;;;;;;5.43;5.03;;;23.00;99.90;;;;;;5035302;28;20198;-62
2023/09/18 08:37:02;;;;;;;4.80;4.43;;;23.10;99.90;;;;;;5017417;28;20214;-63
2023/09/18 08:39:31;;;;;;;6.18;4.63;;;23.10;99.90;;;;;;5036914;28;20411;-61
2023/09/18 08:42:02;;;;;;;5.07;4.65;;;23.20;99.90;;;;;;5031808;28;20194;-69
2023/09/18 08:44:28;;;;;;;7.95;4.53;;;23.30;99.90;;;;;;5031438;28;20207;-66
2023/09/18 08:46:55;;;;;;;8.15;4.82;;;23.30;99.90;;;;;;5029991;28;20231;-67
2023/09/18 08:49:23;;;;;;;4.70;4.35;;;23.40;99.90;;;;;;5017389;28;20219;-68
2023/09/18 08:51:50;;;;;;;5.45;4.97;;;23.50;99.90;;;;;;5035177;28;20673;-65
2023/09/18 08:54:17;;;;;;;6.43;5.75;;;23.60;99.90;;;;;;5019043;28;21030;-61
2023/09/18 08:56:43;;;;;;;5.38;4.88;;;23.70;99.90;;;;;;5039663;28;20286;-61
2023/09/18 08:59:08;;;;;;;4.75;4.30;;;23.70;99.90;;;;;;5025346;28;20313;-61
2023/09/18 09:01:33;;;;;;;5.03;4.53;;;23.90;99.90;;;;;;5036774;28;20744;-60
2023/09/18 09:04:00;;;;;;;5.32;4.93;;;23.90;99.90;;;;;;5032567;28;20669;-60
2023/09/18 09:06:26;;;;;;;5.03;4.60;;;24.00;99.90;;;;;;5036194;28;20222;-62
2023/09/18 09:08:52;;;;;;;4.88;4.35;;;24.00;99.90;;;;;;5039475;28;20286;-61
2023/09/18 09:11:19;;;;;;;4.18;3.85;;;24.20;99.90;;;;;;5036307;28;20277;-64
2023/09/18 09:13:44;;;;;;;4.15;3.85;;;24.20;99.90;;;;;;5033799;28;20210;-66
2023/09/18 09:16:12;;;;;;;7.68;5.28;;;24.30;99.90;;;;;;5019032;28;20203;-66
2023/09/18 09:18:47;;;;;;;5.40;4.93;;;24.40;99.90;;;;;;5040336;28;20866;-63
2023/09/18 09:21:13;;;;;;;7.25;4.90;;;24.40;99.90;;;;;;5037907;28;20210;-66
2023/09/18 09:23:53;;;;;;;5.38;4.80;;;24.50;99.90;;;;;;5034540;28;20204;-67
2023/09/18 09:26:21;;;;;;;4.30;4.00;;;24.70;99.90;;;;;;5045154;28;20202;-61
2023/09/18 09:28:48;;;;;;;6.97;5.00;;;24.60;99.90;;;;;;5038308;28;20224;-62
2023/09/18 09:31:34;;;;;;;6.85;4.53;;;24.70;99.90;;;;;;5038670;28;20205;-68
2023/09/18 09:34:01;;;;;;;5.25;4.72;;;24.70;99.90;;;;;;5035720;28;20238;-65
2023/09/18 09:36:27;;;;;;;5.03;4.53;;;24.70;99.90;;;;;;5039533;28;20633;-67
2023/09/18 09:38:59;;;;;;;4.32;4.03;;;24.90;99.90;;;;;;5034307;28;20853;-67
2023/09/18 09:41:27;;;;;;;5.22;4.72;;;24.90;99.90;;;;;;5037846;28;20203;-66
2023/09/18 09:43:54;;;;;;;7.20;4.57;;;25.00;99.90;;;;;;5016887;28;20436;-64
2023/09/18 09:46:21;;;;;;;5.00;4.43;;;25.10;99.90;;;;;;5024586;28;20222;-65
2023/09/18 09:49:01;;;;;;;4.32;4.03;;;25.30;99.90;;;;;;5022244;28;20331;-64
2023/09/18 09:51:27;;;;;;;6.15;4.35;;;25.40;99.90;;;;;;5018339;28;20740;-64
2023/09/18 09:53:53;;;;;;;7.32;4.32;;;25.30;99.90;;;;;;5025631;28;20216;-62
2023/09/18 09:56:19;;;;;;;5.57;4.20;;;25.40;99.90;;;;;;5015886;28;20582;-61
2023/09/18 09:58:59;;;;;;;5.95;4.43;;;25.20;99.90;;;;;;5024719;28;20847;-61
2023/09/18 10:01:27;;;;;;;5.35;4.22;;;25.30;99.90;;;;;;5015690;28;20204;-61
2023/09/18 10:03:54;;;;;;;4.68;4.30;;;25.40;99.90;;;;;;5014221;28;20205;-61
2023/09/18 10:06:20;;;;;;;6.45;4.45;;;25.20;99.90;;;;;;5017602;28;20194;-61
2023/09/18 10:08:46;;;;;;;5.72;4.95;;;25.20;99.90;;;;;;5017379;28;20190;-61
2023/09/18 10:11:16;;;;;;;5.20;4.53;;;25.20;99.90;;;;;;5014651;28;20260;-62
2023/09/18 10:13:53;;;;;;;4.15;3.75;;;25.30;99.90;;;;;;5017452;28;20215;-64
2023/09/18 10:16:21;;;;;;;5.90;4.75;;;25.40;99.90;;;;;;5010970;28;20346;-63
2023/09/18 10:19:18;;;;;;;4.57;4.18;;;25.40;99.90;;;;;;5016055;28;20202;-66
2023/09/18 10:22:22;;;;;;;4.90;4.50;;;25.30;99.90;;;;;;5014353;28;20192;-62
2023/09/18 10:24:50;;;;;;;4.72;4.40;;;25.30;99.90;;;;;;5014128;28;20206;-67
2023/09/18 10:27:17;;;;;;;4.15;3.85;;;25.30;99.90;;;;;;5020325;28;20580;-67
2023/09/18 10:29:45;;;;;;;6.30;4.40;;;25.40;99.90;;;;;;5023569;28;20188;-67
2023/09/18 10:32:12;;;;;;;5.78;4.50;;;25.40;99.90;;;;;;5015123;28;20267;-66
2023/09/18 10:34:38;;;;;;;4.28;3.90;;;25.60;99.90;;;;;;5013933;28;20188;-63
2023/09/18 10:37:07;;;;;;;4.22;3.90;;;25.80;99.90;;;;;;5017428;28;20749;-63
2023/09/18 10:39:36;;;;;;;5.20;3.78;;;25.80;99.90;;;;;;5019444;28;20209;-63
2023/09/18 10:42:03;;;;;;;4.70;4.22;;;25.80;99.90;;;;;;5016454;28;20213;-63
2023/09/18 10:44:31;;;;;;;4.50;4.18;;;25.90;99.90;;;;;;5016539;28;20750;-62
2023/09/18 10:46:58;;;;;;;4.57;4.18;;;25.80;99.90;;;;;;5018012;28;20198;-62
2023/09/18 10:49:25;;;;;;;4.55;4.25;;;25.60;99.90;;;;;;5032766;28;20211;-61
2023/09/18 10:51:54;;;;;;;4.82;4.35;;;25.50;99.90;;;;;;5037034;28;20274;-61
2023/09/18 10:54:27;;;;;;;4.10;3.70;;;25.40;99.90;;;;;;5031106;28;20196;-61
2023/09/18 10:56:52;;;;;;;6.78;4.57;;;25.50;99.90;;;;;;5041214;28;20195;-64
2023/09/18 10:59:20;;;;;;;5.57;4.38;;;25.60;99.90;;;;;;5037013;28;20574;-62
2023/09/18 11:01:48;;;;;;;8.35;4.40;;;25.60;99.90;;;;;;5036455;28;20202;-61
2023/09/18 11:04:17;;;;;;;4.10;3.80;;;25.60;99.90;;;;;;5032605;28;20213;-62
2023/09/18 11:06:55;;;;;;;4.60;4.10;;;25.60;99.90;;;;;;5018914;28;20529;-62
2023/09/18 11:09:28;;;;;;;6.20;4.13;;;25.40;99.90;;;;;;5038623;28;20213;-61
2023/09/18 11:11:57;;;;;;;5.50;4.55;;;25.50;99.90;;;;;;5032689;28;20206;-62
2023/09/18 11:14:56;;;;;;;5.03;4.53;;;25.40;99.90;;;;;;5032930;28;20210;-62
2023/09/18 11:17:36;;;;;;;4.95;4.55;;;25.40;99.90;;;;;;5020330;28;20868;-62
2023/09/18 11:20:20;;;;;;;5.53;4.95;;;25.50;99.90;;;;;;5041440;28;20287;-62
2023/09/18 11:22:55;;;;;;;5.90;4.85;;;25.50;99.90;;;;;;5033941;28;20225;-62
2023/09/18 11:25:47;;;;;;;4.60;4.20;;;25.50;99.90;;;;;;5037784;28;20215;-61
2023/09/18 11:28:24;;;;;;;6.90;4.75;;;25.60;99.90;;;;;;5011861;28;20291;-62
2023/09/18 11:31:01;;;;;;;4.78;4.38;;;25.60;99.90;;;;;;5035853;28;20193;-62
2023/09/18 11:33:35;;;;;;;4.72;4.43;;;25.50;99.90;;;;;;5038390;28;20208;-62
2023/09/18 11:36:30;;;;;;;7.65;4.68;;;25.60;99.90;;;;;;5037615;28;20299;-62
2023/09/18 11:39:03;;;;;;;5.00;4.60;;;25.40;99.90;;;;;;5038241;28;20201;-62
2023/09/18 11:41:31;;;;;;;5.15;4.40;;;25.60;99.90;;;;;;5035066;28;20282;-62
2023/09/18 11:44:29;;;;;;;6.80;4.82;;;25.40;99.90;;;;;;5031313;28;20197;-63
2023/09/18 11:46:56;;;;;;;5.72;4.72;;;25.50;99.90;;;;;;5029871;28;20217;-63
2023/09/18 11:49:22;;;;;;;5.05;4.65;;;25.50;99.90;;;;;;5016545;28;20715;-66
2023/09/18 11:51:54;;;;;;;5.35;4.85;;;25.40;99.90;;;;;;5012110;28;20210;-66
2023/09/18 11:54:21;;;;;;;5.43;5.03;;;25.40;99.90;;;;;;5035608;28;20246;-65
2023/09/18 11:56:46;;;;;;;5.25;4.75;;;25.30;99.90;;;;;;5039922;28;20204;-63
2023/09/18 11:59:12;;;;;;;5.07;4.68;;;25.20;99.90;;;;;;5036983;28;20510;-64
2023/09/18 12:01:46;;;;;;;4.75;4.38;;;25.30;99.90;;;;;;5036748;28;20191;-64
2023/09/18 12:04:11;;;;;;;5.25;4.68;;;25.40;99.90;;;;;;5038097;28;20309;-66
2023/09/18 12:06:40;;;;;;;5.55;5.05;;;25.40;99.90;;;;;;5032668;28;20222;-64
2023/09/18 12:09:06;;;;;;;8.43;5.18;;;25.40;99.90;;;;;;5017774;28;20613;-64
2023/09/18 12:11:36;;;;;;;5.18;4.78;;;25.50;99.90;;;;;;5018215;28;20607;-63
2023/09/18 12:14:02;;;;;;;4.97;4.30;;;25.60;99.90;;;;;;5019374;28;20271;-65
2023/09/18 12:16:28;;;;;;;5.03;4.63;;;25.70;99.90;;;;;;5030610;28;20204;-65
2023/09/18 12:18:53;;;;;;;5.18;4.72;;;25.70;99.90;;;;;;5034278;28;20213;-65
2023/09/18 12:21:19;;;;;;;4.82;4.03;;;25.80;99.90;;;;;;5039473;28;20711;-65
2023/09/18 12:23:46;;;;;;;8.23;4.47;;;25.90;99.90;;;;;;5017246;28;20203;-64
2023/09/18 12:26:15;;;;;;;5.28;4.78;;;25.80;99.90;;;;;;5036615;28;20195;-68
2023/09/18 12:28:44;;;;;;;5.38;4.97;;;26.00;99.90;;;;;;5036967;28;20931;-66
2023/09/18 12:31:11;;;;;;;6.47;5.95;;;26.00;99.90;;;;;;5038749;28;20668;-64
2023/09/18 12:33:38;;;;;;;4.53;4.13;;;26.10;99.90;;;;;;5037426;28;20211;-64
2023/09/18 12:36:04;;;;;;;6.55;4.32;;;26.20;99.90;;;;;;5036945;28;20306;-63
2023/09/18 12:38:31;;;;;;;8.77;4.63;;;26.20;99.50;;;;;;5039366;28;20785;-64
2023/09/18 12:41:04;;;;;;;5.32;4.80;;;26.10;99.90;;;;;;5021593;28;20222;-63
2023/09/18 12:43:31;;;;;;;4.25;3.85;;;25.90;99.90;;;;;;5037521;28;20795;-65
2023/09/18 12:45:57;;;;;;;4.65;4.30;;;25.80;99.90;;;;;;5032627;28;20294;-69
2023/09/18 12:48:22;;;;;;;4.43;3.90;;;25.80;99.90;;;;;;5033801;28;20706;-68